createdAt,value
2022-08-16T00:02:14.509Z,20.45
2022-08-16T00:04:46.489Z,19.65
2022-08-16T00:07:25.907Z,16.20
2022-08-16T00:10:01.273Z,19.77
2022-08-16T00:12:33.708Z,21.95
2022-08-16T00:15:13.145Z,16.33
2022-08-16T00:17:56.990Z,20.05
2022-08-16T00:20:29.528Z,15.13
2022-08-16T00:23:01.907Z,16.52
2022-08-16T00:26:33.614Z,15.65
2022-08-16T00:28:29.919Z,14.35
2022-08-16T00:31:04.221Z,13.85
2022-08-16T00:33:36.368Z,15.50
2022-08-16T00:36:11.223Z,14.15
2022-08-16T00:38:43.788Z,15.45
2022-08-16T00:41:15.954Z,15.07
2022-08-16T00:43:49.343Z,14.73
2022-08-16T00:46:34.413Z,13.68
2022-08-16T00:49:17.531Z,12.65
2022-08-16T00:51:53.676Z,13.52
2022-08-16T00:54:31.014Z,19.80
2022-08-16T00:57:08.143Z,20.30
2022-08-16T00:59:54.703Z,21.25
2022-08-16T01:02:48.733Z,17.88
2022-08-16T01:05:23.851Z,21.55
2022-08-16T01:07:57.464Z,15.77
2022-08-16T01:10:33.742Z,15.52
2022-08-16T01:13:15.187Z,14.95
2022-08-16T01:15:53.642Z,17.27
2022-08-16T01:18:39.725Z,14.65
2022-08-16T01:21:33.800Z,15.65
2022-08-16T01:24:52.502Z,14.77
2022-08-16T01:27:46.018Z,15.23
2022-08-16T01:30:26.446Z,14.85
2022-08-16T01:33:14.525Z,17.10
2022-08-16T01:35:53.221Z,16.05
2022-08-16T01:38:31.413Z,15.65
2022-08-16T01:41:12.318Z,16.25
2022-08-16T01:43:53.787Z,15.27
2022-08-16T01:46:40.202Z,17.02
2022-08-16T01:49:12.633Z,17.10
2022-08-16T01:51:53.899Z,16.77
2022-08-16T01:54:31.035Z,17.10
2022-08-16T01:57:04.157Z,15.57
2022-08-16T01:59:38.243Z,17.20
2022-08-16T02:02:26.589Z,20.08
2022-08-16T02:05:00.553Z,16.02
2022-08-16T02:07:34.969Z,20.45
2022-08-16T02:10:08.528Z,17.08
2022-08-16T02:12:52.057Z,14.45
2022-08-16T02:15:29.190Z,17.98
2022-08-16T02:18:04.911Z,14.75
2022-08-16T02:20:42.616Z,17.20
2022-08-16T02:23:18.340Z,18.40
2022-08-16T02:25:54.959Z,19.35
2022-08-16T02:28:26.935Z,14.30
2022-08-16T02:31:07.593Z,20.65
2022-08-16T02:33:43.451Z,18.90
2022-08-16T02:36:42.269Z,20.58
2022-08-16T02:39:10.681Z,19.60
2022-08-16T02:41:45.405Z,20.50
2022-08-16T02:44:26.848Z,24.23
2022-08-16T02:46:59.051Z,20.95
2022-08-16T02:50:52.289Z,21.63
2022-08-16T02:52:29.460Z,17.05
2022-08-16T02:55:01.567Z,18.40
2022-08-16T02:57:36.134Z,17.80
2022-08-16T03:00:34.239Z,18.05
2022-08-16T03:03:10.392Z,15.55
2022-08-16T03:05:49.829Z,18.13
2022-08-16T03:08:50.534Z,18.35
2022-08-16T03:11:21.634Z,18.48
2022-08-16T03:13:56.444Z,19.38
2022-08-16T03:16:32.741Z,21.52
2022-08-16T03:19:10.483Z,21.95
2022-08-16T03:21:42.571Z,24.77
2022-08-16T03:24:28.742Z,24.77
2022-08-16T03:27:03.170Z,22.33
2022-08-16T03:29:35.135Z,22.88
2022-08-16T03:32:10.107Z,24.88
2022-08-16T03:34:49.733Z,24.77
2022-08-16T03:37:21.973Z,25.40
2022-08-16T03:39:56.391Z,19.88
2022-08-16T03:42:28.815Z,25.95
2022-08-16T03:45:05.462Z,17.67
2022-08-16T03:47:37.441Z,19.92
2022-08-16T03:50:25.896Z,23.25
2022-08-16T03:53:04.289Z,22.65
2022-08-16T03:55:45.695Z,23.45
2022-08-16T03:58:18.230Z,21.08
2022-08-16T04:00:59.166Z,18.90
2022-08-16T04:03:31.936Z,23.00
2022-08-16T04:06:08.026Z,20.30
2022-08-16T04:08:43.909Z,22.40
2022-08-16T04:11:19.454Z,19.27
2022-08-16T04:14:00.812Z,16.23
2022-08-16T04:16:47.470Z,21.20
2022-08-16T04:19:31.727Z,21.27
2022-08-16T04:22:08.719Z,19.98
2022-08-16T04:24:40.882Z,20.67
2022-08-16T04:27:15.642Z,16.65
2022-08-16T04:29:49.236Z,21.05
2022-08-16T04:32:24.666Z,20.90
2022-08-16T04:34:56.502Z,21.92
2022-08-16T04:37:30.856Z,21.20
2022-08-16T04:40:05.613Z,19.50
2022-08-16T04:42:40.571Z,21.30
2022-08-16T04:45:14.327Z,19.80
2022-08-16T04:47:56.251Z,21.70
2022-08-16T04:50:30.441Z,19.65
2022-08-16T04:53:03.051Z,22.70
2022-08-16T04:55:38.094Z,26.58
2022-08-16T04:58:43.979Z,23.02
2022-08-16T05:01:08.025Z,21.05
2022-08-16T05:03:41.797Z,21.52
2022-08-16T05:06:45.231Z,18.02
2022-08-16T05:09:19.241Z,19.10
2022-08-16T05:11:57.396Z,19.83
2022-08-16T05:14:46.131Z,20.77
2022-08-16T05:17:24.746Z,21.40
2022-08-16T05:19:58.471Z,19.55
2022-08-16T05:22:30.504Z,22.60
2022-08-16T05:25:08.832Z,21.95
2022-08-16T05:27:43.330Z,21.35
2022-08-16T05:30:34.647Z,22.60
2022-08-16T05:33:14.397Z,21.35
2022-08-16T05:35:55.694Z,23.17
2022-08-16T05:38:33.062Z,21.02
2022-08-16T05:41:13.789Z,20.85
2022-08-16T05:43:47.723Z,17.90
2022-08-16T05:46:29.839Z,18.80
2022-08-16T05:49:08.629Z,19.80
2022-08-16T05:51:42.340Z,20.58
2022-08-16T05:54:23.817Z,21.05
2022-08-16T05:57:00.281Z,18.77
2022-08-16T05:59:32.337Z,21.00
2022-08-16T06:02:09.501Z,19.35
2022-08-16T06:04:44.843Z,18.15
2022-08-16T06:07:24.346Z,20.67
2022-08-16T06:10:00.197Z,22.73
2022-08-16T06:12:32.970Z,20.70
2022-08-16T06:15:09.949Z,19.27
2022-08-16T06:17:44.491Z,17.90
2022-08-16T06:20:34.761Z,20.38
2022-08-16T06:23:16.728Z,15.68
2022-08-16T06:25:53.307Z,15.98
2022-08-16T06:28:35.541Z,16.17
2022-08-16T06:31:13.498Z,15.48
2022-08-16T06:33:49.102Z,19.50
2022-08-16T06:36:26.658Z,21.42
2022-08-16T06:38:59.723Z,13.10
2022-08-16T06:41:39.477Z,13.95
2022-08-16T06:44:21.503Z,16.95
2022-08-16T06:46:56.207Z,13.93
2022-08-16T06:49:29.245Z,12.95
2022-08-16T06:52:05.616Z,10.48
2022-08-16T06:54:59.581Z,11.38
2022-08-16T06:57:31.417Z,12.43
2022-08-16T07:00:24.234Z,13.57
2022-08-16T07:02:59.554Z,15.00
2022-08-16T07:05:41.917Z,13.88
2022-08-16T07:08:14.132Z,16.83
2022-08-16T07:10:46.832Z,14.55
2022-08-16T07:13:43.677Z,12.13
2022-08-16T07:16:17.103Z,18.60
2022-08-16T07:19:01.675Z,14.25
2022-08-16T07:21:45.701Z,13.80
2022-08-16T07:24:30.375Z,13.77
2022-08-16T07:27:08.505Z,12.43
2022-08-16T07:29:44.821Z,12.50
2022-08-16T07:32:19.206Z,14.77
2022-08-16T07:35:01.715Z,13.80
2022-08-16T07:37:33.616Z,11.77
2022-08-16T07:40:11.187Z,13.02
2022-08-16T07:42:43.478Z,15.70
2022-08-16T07:45:17.503Z,14.00
2022-08-16T07:47:51.202Z,18.38
2022-08-16T07:50:55.578Z,15.23
2022-08-16T07:53:19.974Z,15.25
2022-08-16T07:55:53.916Z,15.38
2022-08-16T07:58:34.412Z,18.95
2022-08-16T08:01:10.459Z,18.70
2022-08-16T08:03:48.966Z,18.73
2022-08-16T08:06:25.068Z,16.52
2022-08-16T08:08:59.526Z,20.75
2022-08-16T08:11:32.038Z,17.08
2022-08-16T08:14:06.624Z,17.05
2022-08-16T08:16:45.476Z,18.45
2022-08-16T08:19:17.602Z,17.92
2022-08-16T08:22:00.793Z,20.13
2022-08-16T08:24:34.801Z,18.50
2022-08-16T08:27:09.154Z,19.27
2022-08-16T08:29:42.728Z,20.20
2022-08-16T08:32:58.776Z,20.00
2022-08-16T08:35:12.043Z,18.70
2022-08-16T08:37:54.722Z,18.38
2022-08-16T08:40:29.712Z,19.88
2022-08-16T08:43:12.192Z,19.65
2022-08-16T08:45:47.172Z,22.08
2022-08-16T08:48:35.058Z,16.17
2022-08-16T08:51:10.104Z,16.88
2022-08-16T08:53:43.287Z,16.77
2022-08-16T08:56:23.587Z,17.65
2022-08-16T08:58:58.219Z,15.25
2022-08-16T09:01:36.912Z,19.33
2022-08-16T09:04:17.355Z,17.58
2022-08-16T09:06:49.709Z,15.90
2022-08-16T09:09:23.290Z,18.50
2022-08-16T09:12:06.391Z,15.57
2022-08-16T09:14:49.672Z,19.25
2022-08-16T09:17:47.170Z,17.05
2022-08-16T09:20:17.076Z,16.65
2022-08-16T09:22:52.427Z,14.93
2022-08-16T09:25:26.451Z,17.42
2022-08-16T09:28:09.553Z,14.88
2022-08-16T09:30:44.980Z,15.10
2022-08-16T09:33:19.935Z,17.73
2022-08-16T09:35:55.524Z,13.88
2022-08-16T09:38:32.049Z,14.38
2022-08-16T09:41:06.859Z,13.70
2022-08-16T09:44:00.731Z,16.58
2022-08-16T09:46:48.404Z,17.00
2022-08-16T09:49:21.888Z,14.35
2022-08-16T10:27:22.007Z,15.57
2022-08-16T10:30:00.790Z,15.77
2022-08-16T10:32:26.902Z,13.63
2022-08-16T10:35:03.857Z,11.95
2022-08-16T10:37:36.591Z,15.98
2022-08-16T10:40:29.614Z,13.52
2022-08-16T10:43:02.206Z,12.30
2022-08-16T10:45:37.124Z,14.95
2022-08-16T10:48:27.112Z,25.27
2022-08-16T10:51:02.717Z,14.85
2022-08-16T10:53:37.983Z,22.63
2022-08-16T10:56:52.517Z,20.20
2022-08-16T11:05:12.073Z,15.57
2022-08-16T11:07:54.986Z,12.32
2022-08-16T11:16:27.648Z,19.67
2022-08-16T11:19:14.649Z,14.77
2022-08-16T11:24:45.140Z,15.90
2022-08-16T11:27:23.553Z,13.80
2022-08-16T11:29:57.140Z,19.67
2022-08-16T11:32:32.309Z,13.00
2022-08-16T11:35:14.350Z,13.68
2022-08-16T11:38:47.424Z,12.85
2022-08-16T11:40:59.633Z,15.35
2022-08-16T11:43:33.933Z,15.07
2022-08-16T11:46:43.014Z,16.70
2022-08-16T11:49:02.419Z,15.20
2022-08-16T11:51:34.371Z,13.57
2022-08-16T11:54:20.127Z,12.88
2022-08-16T11:56:57.367Z,14.48
2022-08-16T11:59:32.767Z,14.18
2022-08-16T12:02:32.041Z,13.32
2022-08-16T12:05:00.945Z,13.43
2022-08-16T12:07:38.253Z,10.85
2022-08-16T12:10:14.727Z,13.25
2022-08-16T12:12:47.294Z,12.57
2022-08-16T12:15:23.019Z,13.38
2022-08-16T12:17:55.782Z,11.55
2022-08-16T12:20:30.975Z,11.25
2022-08-16T12:23:05.411Z,11.82
2022-08-16T12:25:37.970Z,11.82
2022-08-16T12:28:13.078Z,11.57
2022-08-16T12:30:46.680Z,12.52
2022-08-16T12:33:25.284Z,13.18
2022-08-16T12:35:59.886Z,10.95
2022-08-16T12:38:41.353Z,9.63
2022-08-16T12:41:24.690Z,12.80
2022-08-16T12:44:01.032Z,13.90
2022-08-16T12:46:34.437Z,11.85
2022-08-16T12:49:06.543Z,11.15
2022-08-16T12:51:59.478Z,12.45
2022-08-16T12:54:35.280Z,13.73
2022-08-16T12:57:14.342Z,12.60
2022-08-16T12:59:49.232Z,12.70
2022-08-16T13:02:33.822Z,11.82
2022-08-16T13:05:11.385Z,16.15
2022-08-16T13:07:51.624Z,12.68
2022-08-16T13:10:36.742Z,10.73
2022-08-16T13:13:10.744Z,15.13
2022-08-16T13:15:55.523Z,11.38
2022-08-16T13:18:34.020Z,12.05
2022-08-16T13:21:10.485Z,10.13
2022-08-16T13:23:43.484Z,12.73
2022-08-16T13:26:18.055Z,10.48
2022-08-16T13:28:49.961Z,16.70
2022-08-16T13:31:24.330Z,12.68
2022-08-16T13:33:58.849Z,16.40
2022-08-16T13:36:48.024Z,12.02
2022-08-16T13:39:24.429Z,13.77
2022-08-16T13:42:04.782Z,16.42
2022-08-16T13:44:55.890Z,14.20
2022-08-16T13:47:30.293Z,15.52
2022-08-16T13:50:03.029Z,13.35
2022-08-16T13:52:35.424Z,16.33
2022-08-16T13:55:17.446Z,14.35
2022-08-16T13:58:35.439Z,10.95
2022-08-16T14:00:41.910Z,15.45
2022-08-16T14:03:14.561Z,15.52
2022-08-16T14:05:51.550Z,19.17
2022-08-16T14:08:27.415Z,13.20
2022-08-16T14:10:59.565Z,17.98
2022-08-16T14:13:35.129Z,12.20
2022-08-16T14:16:23.478Z,18.05
2022-08-16T14:18:56.266Z,16.40
2022-08-16T14:21:35.277Z,13.95
2022-08-16T14:24:12.852Z,13.80
2022-08-16T14:26:59.523Z,17.52
2022-08-16T14:29:38.293Z,11.48
2022-08-16T14:32:13.355Z,16.52
2022-08-16T14:35:20.364Z,19.98
2022-08-16T14:37:52.722Z,15.93
2022-08-16T14:40:31.875Z,15.05
2022-08-16T14:43:06.203Z,12.68
2022-08-16T14:45:39.569Z,16.90
2022-08-16T14:48:11.483Z,17.35
2022-08-16T14:50:43.513Z,18.50
2022-08-16T14:53:15.517Z,14.48
2022-08-16T14:55:51.540Z,12.55
2022-08-16T14:58:35.115Z,15.10
2022-08-16T15:01:10.549Z,14.43
2022-08-16T15:03:45.075Z,16.73
2022-08-16T15:06:16.926Z,15.52
2022-08-16T15:08:48.808Z,15.85
2022-08-16T15:11:22.756Z,12.88
2022-08-16T15:13:55.102Z,10.85
2022-08-16T15:16:28.900Z,12.05
2022-08-16T15:19:05.988Z,10.32
2022-08-16T15:21:37.965Z,8.00
2022-08-16T15:24:16.712Z,11.00
2022-08-16T15:26:54.347Z,8.82
2022-08-16T15:29:27.108Z,10.43
2022-08-16T15:32:03.721Z,9.75
2022-08-16T15:34:44.891Z,9.45
2022-08-16T15:37:17.016Z,7.55
2022-08-16T15:39:53.709Z,6.85
2022-08-16T15:42:28.861Z,6.47
2022-08-16T15:45:02.860Z,10.02
2022-08-16T15:47:43.520Z,6.75
2022-08-16T15:50:27.832Z,8.27
2022-08-16T15:53:06.446Z,6.38
2022-08-16T15:55:49.399Z,5.90
2022-08-16T15:58:35.612Z,8.07
2022-08-16T16:01:10.731Z,6.68
2022-08-16T16:03:42.682Z,7.32
2022-08-16T16:06:20.405Z,6.15
2022-08-16T16:09:00.168Z,6.78
2022-08-16T16:11:32.122Z,6.70
2022-08-16T16:14:07.487Z,6.30
2022-08-16T16:16:39.836Z,6.32
2022-08-16T16:19:19.927Z,8.40
2022-08-16T16:21:55.689Z,9.02
2022-08-16T16:24:30.807Z,8.98
2022-08-16T16:27:03.762Z,12.63
2022-08-16T16:29:40.346Z,11.57
2022-08-16T16:32:12.498Z,11.00
2022-08-16T16:34:45.265Z,13.00
2022-08-16T16:37:17.255Z,12.13
2022-08-16T16:39:50.089Z,10.48
2022-08-16T16:42:29.531Z,7.90
2022-08-16T16:45:08.244Z,12.35
2022-08-16T16:47:45.737Z,8.63
2022-08-16T16:50:17.832Z,14.45
2022-08-16T16:52:54.104Z,8.98
2022-08-16T16:55:26.830Z,13.75
2022-08-16T16:58:18.076Z,11.57
2022-08-16T17:01:01.073Z,16.58
2022-08-16T17:03:33.459Z,16.13
2022-08-16T17:06:09.387Z,13.32
2022-08-16T17:08:43.196Z,8.35
2022-08-16T17:11:16.189Z,7.57
2022-08-16T17:13:56.987Z,8.27
2022-08-16T17:16:33.041Z,7.72
2022-08-16T17:19:16.682Z,8.82
2022-08-16T17:21:51.007Z,8.30
2022-08-16T17:24:31.407Z,9.63
2022-08-16T17:27:11.834Z,8.00
2022-08-16T17:29:51.431Z,6.60
2022-08-16T17:32:33.995Z,8.45
2022-08-16T17:35:23.177Z,9.45
2022-08-16T17:37:55.194Z,7.60
2022-08-16T17:40:46.847Z,8.57
2022-08-16T17:43:24.774Z,7.95
2022-08-16T17:46:00.104Z,7.57
2022-08-16T17:48:32.330Z,7.55
2022-08-16T17:51:07.132Z,7.68
2022-08-16T17:53:39.036Z,10.05
2022-08-16T17:56:13.247Z,10.02
2022-08-16T17:58:45.206Z,8.77
2022-08-16T18:01:21.203Z,8.18
2022-08-16T18:04:06.214Z,9.30
2022-08-16T18:06:41.628Z,8.52
2022-08-16T18:09:14.881Z,9.15
2022-08-16T18:11:50.087Z,10.23
2022-08-16T18:14:52.421Z,8.45
2022-08-16T18:17:13.963Z,8.52
2022-08-16T18:19:48.020Z,8.85
2022-08-16T18:22:30.697Z,9.77
2022-08-16T18:25:05.802Z,8.63
2022-08-16T18:27:38.714Z,10.60
2022-08-16T18:30:17.517Z,8.40
2022-08-16T18:32:56.539Z,9.48
2022-08-16T18:35:28.529Z,9.48
2022-08-16T18:38:00.583Z,11.07
2022-08-16T18:40:35.137Z,12.32
2022-08-16T18:43:11.410Z,8.73
2022-08-16T18:45:45.835Z,10.77
2022-08-16T18:48:19.746Z,10.27
2022-08-16T18:51:05.143Z,11.63
2022-08-16T18:53:39.146Z,10.05
2022-08-16T18:56:11.056Z,13.68
2022-08-16T18:58:42.986Z,10.00
2022-08-16T19:01:15.240Z,13.30
2022-08-16T19:03:47.270Z,11.00
2022-08-16T19:06:19.193Z,10.65
2022-08-16T19:08:53.507Z,9.70
2022-08-16T19:11:28.420Z,9.23
2022-08-16T19:14:02.801Z,9.90
2022-08-16T19:16:34.798Z,9.68
2022-08-16T19:19:06.810Z,9.05
2022-08-16T19:21:39.639Z,10.80
2022-08-16T19:24:17.555Z,10.50
2022-08-16T19:26:50.292Z,9.57
2022-08-16T19:29:24.656Z,12.45
2022-08-16T19:31:56.557Z,8.38
2022-08-16T19:34:28.458Z,9.23
2022-08-16T19:37:00.542Z,9.13
2022-08-16T19:39:36.658Z,10.23
2022-08-16T19:42:18.231Z,10.15
2022-08-16T19:44:57.152Z,13.85
2022-08-16T19:47:29.191Z,11.50
2022-08-16T19:50:03.738Z,12.23
2022-08-16T19:52:38.428Z,11.07
2022-08-16T19:55:17.166Z,10.70
2022-08-16T19:57:51.344Z,11.55
2022-08-16T20:00:23.813Z,13.63
2022-08-16T20:03:13.558Z,13.65
2022-08-16T20:05:45.565Z,11.07
2022-08-16T20:08:22.695Z,10.57
2022-08-16T20:10:55.101Z,11.07
2022-08-16T20:13:27.308Z,10.25
2022-08-16T20:16:01.587Z,9.68
2022-08-16T20:18:33.437Z,12.65
2022-08-16T20:21:06.914Z,13.10
2022-08-16T20:23:39.391Z,12.23
2022-08-16T20:26:11.303Z,13.43
2022-08-16T20:28:53.833Z,10.43
2022-08-16T20:31:26.369Z,14.95
2022-08-16T20:33:58.254Z,12.88
2022-08-16T20:36:30.244Z,12.80
2022-08-16T20:39:04.696Z,12.50
2022-08-16T20:41:36.659Z,13.00
2022-08-16T20:44:11.770Z,13.90
2022-08-16T20:46:43.718Z,12.30
2022-08-16T20:49:15.582Z,15.02
2022-08-16T20:51:50.953Z,13.30
2022-08-16T20:54:23.882Z,16.38
2022-08-16T20:56:55.919Z,15.10
2022-08-16T20:59:27.955Z,18.10
2022-08-16T21:02:02.943Z,16.85
2022-08-16T21:04:35.187Z,14.07
2022-08-16T21:07:07.310Z,15.43
2022-08-16T21:09:39.204Z,14.13
2022-08-16T21:12:15.390Z,12.40
2022-08-16T21:14:50.444Z,14.10
2022-08-16T21:17:24.524Z,14.80
2022-08-16T21:19:56.386Z,14.27
2022-08-16T21:22:28.515Z,22.55
2022-08-16T21:25:00.633Z,15.05
2022-08-16T21:27:32.546Z,19.13
2022-08-16T21:30:07.163Z,18.50
2022-08-16T21:32:44.126Z,22.60
2022-08-16T21:35:18.111Z,19.75
2022-08-16T21:38:08.269Z,21.25
2022-08-16T21:40:42.993Z,18.50
2022-08-16T21:43:19.934Z,18.38
2022-08-16T21:45:54.983Z,16.33
2022-08-16T21:48:34.928Z,15.25
2022-08-16T21:51:11.469Z,18.92
2022-08-16T21:53:44.162Z,18.45
2022-08-16T21:56:17.160Z,16.05
2022-08-16T21:58:53.499Z,17.33
2022-08-16T22:01:26.545Z,15.68
2022-08-16T22:04:35.394Z,20.23
2022-08-16T22:06:52.591Z,15.90
2022-08-16T22:09:24.568Z,18.30
2022-08-16T22:11:56.464Z,19.17
2022-08-16T22:14:28.403Z,19.38
2022-08-16T22:17:00.447Z,17.85
2022-08-16T22:19:32.375Z,17.95
2022-08-16T22:22:04.276Z,23.45
2022-08-16T22:24:36.343Z,16.17
2022-08-16T22:27:08.364Z,17.73
2022-08-16T22:29:42.316Z,16.42
2022-08-16T22:32:14.439Z,18.77
2022-08-16T22:34:46.354Z,18.70
2022-08-16T22:37:18.199Z,18.00
2022-08-16T22:39:50.126Z,17.83
2022-08-16T22:42:23.193Z,19.25
2022-08-16T22:44:55.502Z,17.05
2022-08-16T22:47:27.379Z,20.30
2022-08-16T22:49:59.246Z,15.75
2022-08-16T22:52:52.705Z,18.20
2022-08-16T22:55:28.508Z,17.60
2022-08-16T22:58:00.377Z,15.13
2022-08-16T23:00:36.352Z,14.45
2022-08-16T23:03:17.435Z,17.15
2022-08-16T23:05:55.246Z,18.70
2022-08-16T23:08:39.483Z,15.18
2022-08-16T23:11:22.669Z,15.85
2022-08-16T23:13:56.551Z,16.08
2022-08-16T23:16:33.518Z,20.75
2022-08-16T23:19:08.903Z,17.35
2022-08-16T23:21:44.463Z,18.17
2022-08-16T23:24:19.501Z,18.75
2022-08-16T23:26:51.510Z,17.70
2022-08-16T23:29:26.460Z,16.17
2022-08-16T23:32:11.916Z,17.45
2022-08-16T23:34:43.785Z,18.85
2022-08-16T23:37:20.054Z,16.50
2022-08-16T23:39:54.531Z,15.38
2022-08-16T23:42:52.545Z,19.80
2022-08-16T23:45:24.471Z,16.45
2022-08-16T23:47:56.897Z,18.00
2022-08-16T23:50:32.490Z,18.17
2022-08-16T23:53:20.077Z,18.70
2022-08-16T23:55:52.182Z,19.88
2022-08-16T23:58:28.667Z,18.40
